sensor_id;sensor_type;location;lat;lon;timestamp;temperature;humidity
3408;DHT22;1717;50.240;8.406;2023-01-19T00:01:13;0.30;99.90
3408;DHT22;1717;50.240;8.406;2023-01-19T00:03:41;0.20;99.90
3408;DHT22;1717;50.240;8.406;2023-01-19T00:06:09;0.10;99.90
3408;DHT22;1717;50.240;8.406;2023-01-19T00:08:36;0.10;99.90
3408;DHT22;1717;50.240;8.406;2023-01-19T00:11:03;0.10;99.90
3408;DHT22;1717;50.240;8.406;2023-01-19T00:13:30;0.10;99.90
3408;DHT22;1717;50.240;8.406;2023-01-19T00:15:57;0.10;99.90
3408;DHT22;1717;50.240;8.406;2023-01-19T00:18:24;0.10;99.90
3408;DHT22;1717;50.240;8.406;2023-01-19T00:20:52;0.10;99.90
3408;DHT22;1717;50.240;8.406;2023-01-19T00:23:19;0.10;99.90
3408;DHT22;1717;50.240;8.406;2023-01-19T00:25:46;0.20;99.90
3408;DHT22;1717;50.240;8.406;2023-01-19T00:28:15;0.20;99.90
3408;DHT22;1717;50.240;8.406;2023-01-19T00:30:42;0.20;99.90
3408;DHT22;1717;50.240;8.406;2023-01-19T00:33:09;0.20;99.90
3408;DHT22;1717;50.240;8.406;2023-01-19T00:35:38;0.20;99.90
3408;DHT22;1717;50.240;8.406;2023-01-19T00:38:08;0.20;99.90
3408;DHT22;1717;50.240;8.406;2023-01-19T00:40:35;0.10;99.90
3408;DHT22;1717;50.240;8.406;2023-01-19T00:43:02;0.20;99.90
3408;DHT22;1717;50.240;8.406;2023-01-19T00:45:29;0.10;99.90
3408;DHT22;1717;50.240;8.406;2023-01-19T00:47:56;0.20;99.90
3408;DHT22;1717;50.240;8.406;2023-01-19T00:50:23;0.10;99.90
3408;DHT22;1717;50.240;8.406;2023-01-19T00:52:51;0.20;99.90
3408;DHT22;1717;50.240;8.406;2023-01-19T00:55:19;0.20;99.90
3408;DHT22;1717;50.240;8.406;2023-01-19T00:57:46;0.20;99.90
3408;DHT22;1717;50.240;8.406;2023-01-19T01:00:15;0.20;99.90
3408;DHT22;1717;50.240;8.406;2023-01-19T01:02:43;0.20;99.90
3408;DHT22;1717;50.240;8.406;2023-01-19T01:05:11;0.20;99.90
3408;DHT22;1717;50.240;8.406;2023-01-19T01:07:38;0.10;99.90
3408;DHT22;1717;50.240;8.406;2023-01-19T01:10:07;0.10;99.90
3408;DHT22;1717;50.240;8.406;2023-01-19T01:12:36;0.00;99.90
3408;DHT22;1717;50.240;8.406;2023-01-19T01:15:03;0.00;99.90
3408;DHT22;1717;50.240;8.406;2023-01-19T01:17:30;0.00;99.90
3408;DHT22;1717;50.240;8.406;2023-01-19T01:19:57;0.00;99.90
3408;DHT22;1717;50.240;8.406;2023-01-19T01:22:24;0.10;99.90
3408;DHT22;1717;50.240;8.406;2023-01-19T01:24:51;0.10;99.90
3408;DHT22;1717;50.240;8.406;2023-01-19T01:27:18;0.20;99.90
3408;DHT22;1717;50.240;8.406;2023-01-19T01:29:46;0.20;99.90
3408;DHT22;1717;50.240;8.406;2023-01-19T01:32:14;0.20;99.90
3408;DHT22;1717;50.240;8.406;2023-01-19T01:34:41;0.10;99.90
3408;DHT22;1717;50.240;8.406;2023-01-19T01:37:08;0.20;99.90
3408;DHT22;1717;50.240;8.406;2023-01-19T01:39:35;0.20;99.90
3408;DHT22;1717;50.240;8.406;2023-01-19T01:42:04;0.10;99.90
3408;DHT22;1717;50.240;8.406;2023-01-19T01:44:49;0.10;99.90
3408;DHT22;1717;50.240;8.406;2023-01-19T01:47:22;0.10;99.90
3408;DHT22;1717;50.240;8.406;2023-01-19T01:49:55;0.20;99.90
3408;DHT22;1717;50.240;8.406;2023-01-19T01:52:24;0.20;99.90
3408;DHT22;1717;50.240;8.406;2023-01-19T01:54:52;0.20;99.90
3408;DHT22;1717;50.240;8.406;2023-01-19T01:57:19;0.30;99.90
3408;DHT22;1717;50.240;8.406;2023-01-19T01:59:49;0.40;99.90
3408;DHT22;1717;50.240;8.406;2023-01-19T02:02:18;0.50;99.90
3408;DHT22;1717;50.240;8.406;2023-01-19T02:05:08;0.50;99.90
3408;DHT22;1717;50.240;8.406;2023-01-19T02:07:42;0.60;99.90
3408;DHT22;1717;50.240;8.406;2023-01-19T02:10:28;0.70;99.90
3408;DHT22;1717;50.240;8.406;2023-01-19T02:13:14;0.80;99.90
3408;DHT22;1717;50.240;8.406;2023-01-19T02:15:46;0.80;99.90
3408;DHT22;1717;50.240;8.406;2023-01-19T02:18:14;0.90;99.90
3408;DHT22;1717;50.240;8.406;2023-01-19T02:20:44;0.90;99.90
3408;DHT22;1717;50.240;8.406;2023-01-19T02:23:17;1.00;99.90
3408;DHT22;1717;50.240;8.406;2023-01-19T02:25:48;0.90;99.90
3408;DHT22;1717;50.240;8.406;2023-01-19T02:28:15;1.00;99.90
3408;DHT22;1717;50.240;8.406;2023-01-19T02:30:42;1.00;99.90
3408;DHT22;1717;50.240;8.406;2023-01-19T02:33:10;1.00;99.90
3408;DHT22;1717;50.240;8.406;2023-01-19T02:35:38;1.00;99.90
3408;DHT22;1717;50.240;8.406;2023-01-19T02:38:06;1.00;99.90
3408;DHT22;1717;50.240;8.406;2023-01-19T02:40:35;1.00;99.90
3408;DHT22;1717;50.240;8.406;2023-01-19T02:43:05;1.00;99.90
3408;DHT22;1717;50.240;8.406;2023-01-19T02:45:35;1.00;99.90
3408;DHT22;1717;50.240;8.406;2023-01-19T02:48:03;0.90;99.90
3408;DHT22;1717;50.240;8.406;2023-01-19T02:50:42;0.90;99.90
3408;DHT22;1717;50.240;8.406;2023-01-19T02:56:43;0.80;99.90
3408;DHT22;1717;50.240;8.406;2023-01-19T02:59:20;0.80;99.90
3408;DHT22;1717;50.240;8.406;2023-01-19T03:02:10;0.80;99.90
3408;DHT22;1717;50.240;8.406;2023-01-19T03:04:52;0.80;99.90
3408;DHT22;1717;50.240;8.406;2023-01-19T03:07:30;0.80;99.90
3408;DHT22;1717;50.240;8.406;2023-01-19T03:10:03;0.70;99.90
3408;DHT22;1717;50.240;8.406;2023-01-19T03:12:39;0.70;99.90
3408;DHT22;1717;50.240;8.406;2023-01-19T03:15:16;0.80;99.90
3408;DHT22;1717;50.240;8.406;2023-01-19T03:17:45;0.70;99.90
3408;DHT22;1717;50.240;8.406;2023-01-19T03:20:16;0.70;99.90
3408;DHT22;1717;50.240;8.406;2023-01-19T03:22:48;0.60;99.90
3408;DHT22;1717;50.240;8.406;2023-01-19T03:25:16;0.60;99.90
3408;DHT22;1717;50.240;8.406;2023-01-19T03:27:46;0.60;99.90
3408;DHT22;1717;50.240;8.406;2023-01-19T03:30:19;0.50;99.90
3408;DHT22;1717;50.240;8.406;2023-01-19T03:32:50;0.50;99.90
3408;DHT22;1717;50.240;8.406;2023-01-19T03:35:20;0.50;99.90
3408;DHT22;1717;50.240;8.406;2023-01-19T03:37:50;0.50;99.90
3408;DHT22;1717;50.240;8.406;2023-01-19T03:40:18;0.40;99.90
3408;DHT22;1717;50.240;8.406;2023-01-19T03:42:46;0.40;99.90
3408;DHT22;1717;50.240;8.406;2023-01-19T03:45:16;0.30;99.90
3408;DHT22;1717;50.240;8.406;2023-01-19T03:47:43;0.40;99.90
3408;DHT22;1717;50.240;8.406;2023-01-19T03:50:17;0.30;99.90
3408;DHT22;1717;50.240;8.406;2023-01-19T03:52:59;0.30;99.90
3408;DHT22;1717;50.240;8.406;2023-01-19T03:55:26;0.30;99.90
3408;DHT22;1717;50.240;8.406;2023-01-19T03:57:53;0.30;99.90
3408;DHT22;1717;50.240;8.406;2023-01-19T04:00:21;0.40;99.90
3408;DHT22;1717;50.240;8.406;2023-01-19T04:02:48;0.30;99.90
3408;DHT22;1717;50.240;8.406;2023-01-19T04:05:15;0.40;99.90
3408;DHT22;1717;50.240;8.406;2023-01-19T04:07:42;0.40;99.90
3408;DHT22;1717;50.240;8.406;2023-01-19T04:10:09;0.40;99.90
3408;DHT22;1717;50.240;8.406;2023-01-19T04:12:37;0.30;99.90
3408;DHT22;1717;50.240;8.406;2023-01-19T04:15:05;0.40;99.90
3408;DHT22;1717;50.240;8.406;2023-01-19T04:17:34;0.40;99.90
3408;DHT22;1717;50.240;8.406;2023-01-19T04:20:00;0.30;99.90
3408;DHT22;1717;50.240;8.406;2023-01-19T04:22:28;0.40;99.90
3408;DHT22;1717;50.240;8.406;2023-01-19T04:24:55;0.40;99.90
3408;DHT22;1717;50.240;8.406;2023-01-19T04:27:22;0.40;99.90
3408;DHT22;1717;50.240;8.406;2023-01-19T04:29:50;0.40;99.90
3408;DHT22;1717;50.240;8.406;2023-01-19T04:32:17;0.40;99.90
3408;DHT22;1717;50.240;8.406;2023-01-19T04:34:45;0.50;99.90
3408;DHT22;1717;50.240;8.406;2023-01-19T04:37:12;0.50;99.90
3408;DHT22;1717;50.240;8.406;2023-01-19T04:39:38;0.50;99.90
3408;DHT22;1717;50.240;8.406;2023-01-19T04:42:05;0.40;99.90
3408;DHT22;1717;50.240;8.406;2023-01-19T04:44:32;0.40;99.90
3408;DHT22;1717;50.240;8.406;2023-01-19T04:46:59;0.50;99.90
3408;DHT22;1717;50.240;8.406;2023-01-19T04:49:26;0.50;99.90
3408;DHT22;1717;50.240;8.406;2023-01-19T04:51:54;0.50;99.90
3408;DHT22;1717;50.240;8.406;2023-01-19T04:54:21;0.50;99.90
3408;DHT22;1717;50.240;8.406;2023-01-19T04:56:48;0.60;99.90
3408;DHT22;1717;50.240;8.406;2023-01-19T04:59:15;0.60;99.90
3408;DHT22;1717;50.240;8.406;2023-01-19T05:01:41;0.60;99.90
3408;DHT22;1717;50.240;8.406;2023-01-19T05:04:08;0.60;99.90
3408;DHT22;1717;50.240;8.406;2023-01-19T05:06:35;0.60;99.90
3408;DHT22;1717;50.240;8.406;2023-01-19T05:09:03;0.60;99.90
3408;DHT22;1717;50.240;8.406;2023-01-19T05:11:32;0.60;99.90
3408;DHT22;1717;50.240;8.406;2023-01-19T05:13:59;0.60;99.90
3408;DHT22;1717;50.240;8.406;2023-01-19T05:16:25;0.60;99.90
3408;DHT22;1717;50.240;8.406;2023-01-19T05:18:52;0.60;99.90
3408;DHT22;1717;50.240;8.406;2023-01-19T05:21:19;0.70;99.90
3408;DHT22;1717;50.240;8.406;2023-01-19T05:23:46;0.70;99.90
3408;DHT22;1717;50.240;8.406;2023-01-19T05:26:14;0.60;99.90
3408;DHT22;1717;50.240;8.406;2023-01-19T05:28:41;0.60;99.90
3408;DHT22;1717;50.240;8.406;2023-01-19T05:31:07;0.60;99.90
3408;DHT22;1717;50.240;8.406;2023-01-19T05:33:34;0.70;99.90
3408;DHT22;1717;50.240;8.406;2023-01-19T05:36:01;0.70;99.90
3408;DHT22;1717;50.240;8.406;2023-01-19T05:38:28;0.80;99.90
3408;DHT22;1717;50.240;8.406;2023-01-19T05:40:56;0.80;99.90
3408;DHT22;1717;50.240;8.406;2023-01-19T05:43:25;0.80;99.90
3408;DHT22;1717;50.240;8.406;2023-01-19T05:45:51;0.80;99.90
3408;DHT22;1717;50.240;8.406;2023-01-19T05:48:18;0.70;99.90
3408;DHT22;1717;50.240;8.406;2023-01-19T05:50:45;1.00;99.90
3408;DHT22;1717;50.240;8.406;2023-01-19T05:53:13;1.00;99.90
3408;DHT22;1717;50.240;8.406;2023-01-19T05:55:40;1.10;99.90
3408;DHT22;1717;50.240;8.406;2023-01-19T05:58:07;1.10;99.90
3408;DHT22;1717;50.240;8.406;2023-01-19T06:00:35;1.10;99.90
3408;DHT22;1717;50.240;8.406;2023-01-19T06:03:02;0.90;99.90
3408;DHT22;1717;50.240;8.406;2023-01-19T06:05:30;0.90;99.90
3408;DHT22;1717;50.240;8.406;2023-01-19T06:07:57;0.90;99.90
3408;DHT22;1717;50.240;8.406;2023-01-19T06:10:24;0.90;99.90
3408;DHT22;1717;50.240;8.406;2023-01-19T06:12:51;0.80;99.90
3408;DHT22;1717;50.240;8.406;2023-01-19T06:15:18;0.90;99.90
3408;DHT22;1717;50.240;8.406;2023-01-19T06:17:46;0.80;99.90
3408;DHT22;1717;50.240;8.406;2023-01-19T06:20:13;0.90;99.90
3408;DHT22;1717;50.240;8.406;2023-01-19T06:22:40;1.00;99.90
3408;DHT22;1717;50.240;8.406;2023-01-19T06:25:07;0.90;99.90
3408;DHT22;1717;50.240;8.406;2023-01-19T06:27:34;0.90;99.90
3408;DHT22;1717;50.240;8.406;2023-01-19T06:30:01;1.00;99.90
3408;DHT22;1717;50.240;8.406;2023-01-19T06:32:29;1.10;99.90
3408;DHT22;1717;50.240;8.406;2023-01-19T06:34:57;1.10;99.90
3408;DHT22;1717;50.240;8.406;2023-01-19T06:37:24;1.10;99.90
3408;DHT22;1717;50.240;8.406;2023-01-19T06:39:53;1.20;99.90
3408;DHT22;1717;50.240;8.406;2023-01-19T06:42:19;1.20;99.90
3408;DHT22;1717;50.240;8.406;2023-01-19T06:44:46;1.20;99.90
3408;DHT22;1717;50.240;8.406;2023-01-19T06:47:13;1.20;99.90
3408;DHT22;1717;50.240;8.406;2023-01-19T06:49:40;1.20;99.90
3408;DHT22;1717;50.240;8.406;2023-01-19T06:52:11;1.30;99.90
3408;DHT22;1717;50.240;8.406;2023-01-19T06:54:40;1.20;99.90
3408;DHT22;1717;50.240;8.406;2023-01-19T06:57:08;1.20;99.90
3408;DHT22;1717;50.240;8.406;2023-01-19T06:59:35;1.30;99.90
3408;DHT22;1717;50.240;8.406;2023-01-19T07:02:02;1.20;99.90
3408;DHT22;1717;50.240;8.406;2023-01-19T07:04:28;1.10;99.90
3408;DHT22;1717;50.240;8.406;2023-01-19T07:06:55;1.10;99.90
3408;DHT22;1717;50.240;8.406;2023-01-19T07:09:24;1.20;99.90
3408;DHT22;1717;50.240;8.406;2023-01-19T07:11:52;1.10;99.90
3408;DHT22;1717;50.240;8.406;2023-01-19T07:14:19;1.10;99.90
3408;DHT22;1717;50.240;8.406;2023-01-19T07:16:46;1.10;99.90
3408;DHT22;1717;50.240;8.406;2023-01-19T07:19:13;1.10;99.90
3408;DHT22;1717;50.240;8.406;2023-01-19T07:21:40;1.00;99.90
3408;DHT22;1717;50.240;8.406;2023-01-19T07:24:06;1.10;99.90
3408;DHT22;1717;50.240;8.406;2023-01-19T07:26:35;1.10;99.90
3408;DHT22;1717;50.240;8.406;2023-01-19T07:29:01;1.00;99.90
3408;DHT22;1717;50.240;8.406;2023-01-19T07:31:28;1.00;99.90
3408;DHT22;1717;50.240;8.406;2023-01-19T07:33:55;0.90;99.90
3408;DHT22;1717;50.240;8.406;2023-01-19T07:36:22;0.90;99.90
3408;DHT22;1717;50.240;8.406;2023-01-19T07:38:49;1.00;99.90
3408;DHT22;1717;50.240;8.406;2023-01-19T07:41:15;1.00;99.90
3408;DHT22;1717;50.240;8.406;2023-01-19T07:43:44;0.90;99.90
3408;DHT22;1717;50.240;8.406;2023-01-19T07:46:10;1.00;99.90
3408;DHT22;1717;50.240;8.406;2023-01-19T07:48:37;1.00;99.90
3408;DHT22;1717;50.240;8.406;2023-01-19T07:51:05;1.00;99.90
3408;DHT22;1717;50.240;8.406;2023-01-19T07:53:33;1.00;99.90
3408;DHT22;1717;50.240;8.406;2023-01-19T07:56:00;1.10;99.90
3408;DHT22;1717;50.240;8.406;2023-01-19T07:58:27;1.10;99.90
3408;DHT22;1717;50.240;8.406;2023-01-19T08:00:55;1.20;99.90
3408;DHT22;1717;50.240;8.406;2023-01-19T08:03:22;1.10;99.90
3408;DHT22;1717;50.240;8.406;2023-01-19T08:05:49;1.20;99.90
3408;DHT22;1717;50.240;8.406;2023-01-19T08:08:17;1.10;99.90
3408;DHT22;1717;50.240;8.406;2023-01-19T08:10:44;1.20;99.90
3408;DHT22;1717;50.240;8.406;2023-01-19T08:13:11;1.20;99.90
3408;DHT22;1717;50.240;8.406;2023-01-19T08:15:37;1.20;99.90
3408;DHT22;1717;50.240;8.406;2023-01-19T08:18:06;1.20;99.90
3408;DHT22;1717;50.240;8.406;2023-01-19T08:20:34;1.30;99.90
3408;DHT22;1717;50.240;8.406;2023-01-19T08:23:02;1.40;99.90
3408;DHT22;1717;50.240;8.406;2023-01-19T08:25:32;1.40;99.90
3408;DHT22;1717;50.240;8.406;2023-01-19T08:27:59;1.60;99.90
3408;DHT22;1717;50.240;8.406;2023-01-19T08:30:26;1.70;99.90
3408;DHT22;1717;50.240;8.406;2023-01-19T08:32:53;1.80;99.90
3408;DHT22;1717;50.240;8.406;2023-01-19T08:35:29;1.80;99.90
3408;DHT22;1717;50.240;8.406;2023-01-19T08:37:56;1.90;99.90
3408;DHT22;1717;50.240;8.406;2023-01-19T08:40:26;1.90;99.90
3408;DHT22;1717;50.240;8.406;2023-01-19T08:42:56;2.00;99.90
3408;DHT22;1717;50.240;8.406;2023-01-19T08:45:25;2.00;99.90
3408;DHT22;1717;50.240;8.406;2023-01-19T08:47:54;2.00;99.90
3408;DHT22;1717;50.240;8.406;2023-01-19T08:50:21;2.00;99.90
3408;DHT22;1717;50.240;8.406;2023-01-19T08:52:49;2.10;99.90
3408;DHT22;1717;50.240;8.406;2023-01-19T08:55:16;2.20;99.90
3408;DHT22;1717;50.240;8.406;2023-01-19T08:57:43;2.20;99.90
3408;DHT22;1717;50.240;8.406;2023-01-19T09:00:11;2.20;99.90
3408;DHT22;1717;50.240;8.406;2023-01-19T09:02:38;2.10;99.90
3408;DHT22;1717;50.240;8.406;2023-01-19T09:05:06;2.10;99.90
3408;DHT22;1717;50.240;8.406;2023-01-19T09:07:32;2.20;99.90
3408;DHT22;1717;50.240;8.406;2023-01-19T09:10:01;2.30;99.90
3408;DHT22;1717;50.240;8.406;2023-01-19T09:12:27;2.30;99.90
3408;DHT22;1717;50.240;8.406;2023-01-19T09:14:54;2.30;99.90
3408;DHT22;1717;50.240;8.406;2023-01-19T09:17:21;2.40;99.90
3408;DHT22;1717;50.240;8.406;2023-01-19T09:19:48;2.40;99.90
3408;DHT22;1717;50.240;8.406;2023-01-19T09:22:15;2.50;99.90
3408;DHT22;1717;50.240;8.406;2023-01-19T09:24:41;2.50;99.90
3408;DHT22;1717;50.240;8.406;2023-01-19T09:27:09;2.60;99.90
3408;DHT22;1717;50.240;8.406;2023-01-19T09:29:36;2.60;99.90
3408;DHT22;1717;50.240;8.406;2023-01-19T09:32:04;2.70;99.90
3408;DHT22;1717;50.240;8.406;2023-01-19T09:34:30;2.70;99.90
3408;DHT22;1717;50.240;8.406;2023-01-19T09:36:57;2.70;99.90
3408;DHT22;1717;50.240;8.406;2023-01-19T09:39:24;2.70;99.90
3408;DHT22;1717;50.240;8.406;2023-01-19T09:41:56;2.80;99.90
3408;DHT22;1717;50.240;8.406;2023-01-19T09:44:32;2.80;99.90
3408;DHT22;1717;50.240;8.406;2023-01-19T09:47:01;2.80;99.90
3408;DHT22;1717;50.240;8.406;2023-01-19T09:49:32;2.80;99.90
3408;DHT22;1717;50.240;8.406;2023-01-19T09:52:00;2.80;99.90
3408;DHT22;1717;50.240;8.406;2023-01-19T09:54:30;2.80;99.90
3408;DHT22;1717;50.240;8.406;2023-01-19T09:57:00;2.80;99.90
3408;DHT22;1717;50.240;8.406;2023-01-19T09:59:30;2.80;99.90
3408;DHT22;1717;50.240;8.406;2023-01-19T10:02:18;2.80;99.90
3408;DHT22;1717;50.240;8.406;2023-01-19T10:04:57;2.80;99.90
3408;DHT22;1717;50.240;8.406;2023-01-19T10:07:32;2.80;99.90
3408;DHT22;1717;50.240;8.406;2023-01-19T10:10:08;2.80;99.90
3408;DHT22;1717;50.240;8.406;2023-01-19T10:13:00;2.90;99.90
3408;DHT22;1717;50.240;8.406;2023-01-19T10:15:44;2.80;99.90
3408;DHT22;1717;50.240;8.406;2023-01-19T10:18:16;2.80;99.90
3408;DHT22;1717;50.240;8.406;2023-01-19T10:47:35;2.90;99.90
3408;DHT22;1717;50.240;8.406;2023-01-19T10:50:21;2.90;99.90
3408;DHT22;1717;50.240;8.406;2023-01-19T10:52:50;2.90;99.90
3408;DHT22;1717;50.240;8.406;2023-01-19T10:55:28;2.90;99.90
3408;DHT22;1717;50.240;8.406;2023-01-19T10:57:56;3.00;99.90
3408;DHT22;1717;50.240;8.406;2023-01-19T11:00:35;3.00;99.90
3408;DHT22;1717;50.240;8.406;2023-01-19T11:03:07;3.00;99.90
3408;DHT22;1717;50.240;8.406;2023-01-19T11:05:47;3.20;99.90
3408;DHT22;1717;50.240;8.406;2023-01-19T11:08:22;3.00;99.90
3408;DHT22;1717;50.240;8.406;2023-01-19T11:10:52;3.00;99.90
3408;DHT22;1717;50.240;8.406;2023-01-19T11:13:21;3.00;99.90
3408;DHT22;1717;50.240;8.406;2023-01-19T11:15:51;3.00;99.90
3408;DHT22;1717;50.240;8.406;2023-01-19T11:18:27;3.00;99.90
3408;DHT22;1717;50.240;8.406;2023-01-19T11:20:56;3.10;99.90
3408;DHT22;1717;50.240;8.406;2023-01-19T11:23:25;3.10;99.90
3408;DHT22;1717;50.240;8.406;2023-01-19T11:25:55;3.10;99.90
3408;DHT22;1717;50.240;8.406;2023-01-19T11:28:26;3.10;99.90
3408;DHT22;1717;50.240;8.406;2023-01-19T11:30:56;3.10;99.90
3408;DHT22;1717;50.240;8.406;2023-01-19T11:33:31;3.10;99.90
3408;DHT22;1717;50.240;8.406;2023-01-19T11:36:04;3.10;99.90
3408;DHT22;1717;50.240;8.406;2023-01-19T11:38:31;3.10;99.90
3408;DHT22;1717;50.240;8.406;2023-01-19T11:41:15;3.10;99.90
3408;DHT22;1717;50.240;8.406;2023-01-19T11:43:42;3.10;99.90
3408;DHT22;1717;50.240;8.406;2023-01-19T11:46:11;3.10;99.90
3408;DHT22;1717;50.240;8.406;2023-01-19T11:48:42;3.10;99.90
3408;DHT22;1717;50.240;8.406;2023-01-19T11:51:14;3.10;99.90
3408;DHT22;1717;50.240;8.406;2023-01-19T11:53:45;3.10;99.90
3408;DHT22;1717;50.240;8.406;2023-01-19T11:56:13;3.20;99.90
3408;DHT22;1717;50.240;8.406;2023-01-19T11:58:42;3.20;99.90
3408;DHT22;1717;50.240;8.406;2023-01-19T12:01:16;3.20;99.90
3408;DHT22;1717;50.240;8.406;2023-01-19T12:03:53;3.20;99.90
3408;DHT22;1717;50.240;8.406;2023-01-19T12:06:24;3.20;99.90
3408;DHT22;1717;50.240;8.406;2023-01-19T12:08:55;3.20;99.90
3408;DHT22;1717;50.240;8.406;2023-01-19T12:11:26;3.20;99.90
3408;DHT22;1717;50.240;8.406;2023-01-19T12:13:56;3.20;99.90
3408;DHT22;1717;50.240;8.406;2023-01-19T12:16:27;3.30;99.90
3408;DHT22;1717;50.240;8.406;2023-01-19T12:18:59;3.20;99.90
3408;DHT22;1717;50.240;8.406;2023-01-19T12:21:27;3.30;99.90
3408;DHT22;1717;50.240;8.406;2023-01-19T12:24:02;3.30;99.90
3408;DHT22;1717;50.240;8.406;2023-01-19T12:26:34;3.30;99.90
3408;DHT22;1717;50.240;8.406;2023-01-19T12:29:06;3.30;99.90
3408;DHT22;1717;50.240;8.406;2023-01-19T12:31:37;3.30;99.90
3408;DHT22;1717;50.240;8.406;2023-01-19T12:34:35;3.30;99.90
3408;DHT22;1717;50.240;8.406;2023-01-19T12:37:06;3.30;99.90
3408;DHT22;1717;50.240;8.406;2023-01-19T12:39:53;3.30;99.90
3408;DHT22;1717;50.240;8.406;2023-01-19T12:42:20;3.30;99.90
3408;DHT22;1717;50.240;8.406;2023-01-19T12:44:47;3.30;99.90
3408;DHT22;1717;50.240;8.406;2023-01-19T12:47:18;3.30;99.90
3408;DHT22;1717;50.240;8.406;2023-01-19T12:49:49;3.50;99.90
3408;DHT22;1717;50.240;8.406;2023-01-19T12:52:26;3.30;99.90
3408;DHT22;1717;50.240;8.406;2023-01-19T12:55:06;3.30;99.90
3408;DHT22;1717;50.240;8.406;2023-01-19T12:57:36;3.30;99.90
3408;DHT22;1717;50.240;8.406;2023-01-19T13:00:28;3.30;99.90
3408;DHT22;1717;50.240;8.406;2023-01-19T13:02:56;3.30;99.90
3408;DHT22;1717;50.240;8.406;2023-01-19T13:05:50;3.30;99.90
3408;DHT22;1717;50.240;8.406;2023-01-19T13:08:20;3.30;99.90
3408;DHT22;1717;50.240;8.406;2023-01-19T13:13:39;3.30;99.90
3408;DHT22;1717;50.240;8.406;2023-01-19T13:19:15;3.30;99.90
3408;DHT22;1717;50.240;8.406;2023-01-19T13:21:46;3.20;99.90
3408;DHT22;1717;50.240;8.406;2023-01-19T13:24:14;3.20;99.90
3408;DHT22;1717;50.240;8.406;2023-01-19T13:26:53;3.20;99.90
3408;DHT22;1717;50.240;8.406;2023-01-19T13:29:25;3.20;99.90
3408;DHT22;1717;50.240;8.406;2023-01-19T13:31:56;3.20;99.90
3408;DHT22;1717;50.240;8.406;2023-01-19T13:34:29;3.10;99.90
3408;DHT22;1717;50.240;8.406;2023-01-19T13:37:01;3.10;99.90
3408;DHT22;1717;50.240;8.406;2023-01-19T13:39:34;3.10;99.90
3408;DHT22;1717;50.240;8.406;2023-01-19T13:42:05;3.10;99.90
3408;DHT22;1717;50.240;8.406;2023-01-19T13:44:36;3.10;99.90
3408;DHT22;1717;50.240;8.406;2023-01-19T13:47:07;3.10;99.90
3408;DHT22;1717;50.240;8.406;2023-01-19T13:49:39;3.10;99.90
3408;DHT22;1717;50.240;8.406;2023-01-19T13:52:14;3.10;99.90
3408;DHT22;1717;50.240;8.406;2023-01-19T13:54:49;3.10;99.90
3408;DHT22;1717;50.240;8.406;2023-01-19T13:57:25;3.40;99.90
3408;DHT22;1717;50.240;8.406;2023-01-19T14:00:10;3.10;99.90
3408;DHT22;1717;50.240;8.406;2023-01-19T14:02:50;3.20;99.90
3408;DHT22;1717;50.240;8.406;2023-01-19T14:05:21;3.20;99.90
3408;DHT22;1717;50.240;8.406;2023-01-19T14:07:58;3.10;99.90
3408;DHT22;1717;50.240;8.406;2023-01-19T14:10:26;3.10;99.90
3408;DHT22;1717;50.240;8.406;2023-01-19T14:13:00;3.10;99.90
3408;DHT22;1717;50.240;8.406;2023-01-19T14:15:28;3.10;99.90
3408;DHT22;1717;50.240;8.406;2023-01-19T14:18:23;3.10;99.90
3408;DHT22;1717;50.240;8.406;2023-01-19T14:20:55;3.00;99.90
3408;DHT22;1717;50.240;8.406;2023-01-19T14:23:41;3.00;99.90
3408;DHT22;1717;50.240;8.406;2023-01-19T14:26:40;3.00;99.90
3408;DHT22;1717;50.240;8.406;2023-01-19T14:29:32;3.00;99.90
3408;DHT22;1717;50.240;8.406;2023-01-19T14:32:06;3.00;99.90
3408;DHT22;1717;50.240;8.406;2023-01-19T14:34:38;2.90;99.90
3408;DHT22;1717;50.240;8.406;2023-01-19T14:37:14;3.00;99.90
3408;DHT22;1717;50.240;8.406;2023-01-19T14:39:45;3.00;99.90
3408;DHT22;1717;50.240;8.406;2023-01-19T14:42:16;2.90;99.90
3408;DHT22;1717;50.240;8.406;2023-01-19T14:44:46;3.00;99.90
3408;DHT22;1717;50.240;8.406;2023-01-19T14:47:42;3.00;99.90
3408;DHT22;1717;50.240;8.406;2023-01-19T14:50:20;3.00;99.90
3408;DHT22;1717;50.240;8.406;2023-01-19T14:52:51;3.00;99.90
3408;DHT22;1717;50.240;8.406;2023-01-19T14:55:23;3.00;99.90
3408;DHT22;1717;50.240;8.406;2023-01-19T14:57:53;3.00;99.90
3408;DHT22;1717;50.240;8.406;2023-01-19T15:00:20;3.00;99.90
3408;DHT22;1717;50.240;8.406;2023-01-19T15:02:47;2.90;99.90
3408;DHT22;1717;50.240;8.406;2023-01-19T15:05:14;2.90;99.90
3408;DHT22;1717;50.240;8.406;2023-01-19T15:07:43;2.90;99.90
3408;DHT22;1717;50.240;8.406;2023-01-19T15:10:16;3.00;99.90
3408;DHT22;1717;50.240;8.406;2023-01-19T15:12:45;3.00;99.90
3408;DHT22;1717;50.240;8.406;2023-01-19T15:15:14;3.00;99.90
3408;DHT22;1717;50.240;8.406;2023-01-19T15:17:41;3.00;99.90
3408;DHT22;1717;50.240;8.406;2023-01-19T15:20:13;3.00;99.90
3408;DHT22;1717;50.240;8.406;2023-01-19T15:22:41;3.10;99.90
3408;DHT22;1717;50.240;8.406;2023-01-19T15:25:12;3.10;99.90
3408;DHT22;1717;50.240;8.406;2023-01-19T15:27:39;3.20;99.90
3408;DHT22;1717;50.240;8.406;2023-01-19T15:30:14;3.20;99.90
3408;DHT22;1717;50.240;8.406;2023-01-19T15:32:41;3.20;99.90
3408;DHT22;1717;50.240;8.406;2023-01-19T15:35:13;3.30;99.90
3408;DHT22;1717;50.240;8.406;2023-01-19T15:37:40;3.30;99.90
3408;DHT22;1717;50.240;8.406;2023-01-19T15:40:08;3.30;99.90
3408;DHT22;1717;50.240;8.406;2023-01-19T15:42:35;3.30;99.90
3408;DHT22;1717;50.240;8.406;2023-01-19T15:45:34;3.30;99.90
3408;DHT22;1717;50.240;8.406;2023-01-19T15:48:03;3.30;99.90
3408;DHT22;1717;50.240;8.406;2023-01-19T15:50:30;3.40;99.90
3408;DHT22;1717;50.240;8.406;2023-01-19T15:52:58;3.40;99.90
3408;DHT22;1717;50.240;8.406;2023-01-19T15:55:25;3.50;99.90
3408;DHT22;1717;50.240;8.406;2023-01-19T15:57:52;3.50;99.90
3408;DHT22;1717;50.240;8.406;2023-01-19T16:00:23;3.40;99.90
3408;DHT22;1717;50.240;8.406;2023-01-19T16:02:51;3.50;99.90
3408;DHT22;1717;50.240;8.406;2023-01-19T16:05:18;3.50;99.90
3408;DHT22;1717;50.240;8.406;2023-01-19T16:07:45;3.60;99.90
3408;DHT22;1717;50.240;8.406;2023-01-19T16:10:11;3.60;99.90
3408;DHT22;1717;50.240;8.406;2023-01-19T16:12:38;3.60;99.90
3408;DHT22;1717;50.240;8.406;2023-01-19T16:15:06;3.70;99.90
3408;DHT22;1717;50.240;8.406;2023-01-19T16:17:33;3.60;99.90
3408;DHT22;1717;50.240;8.406;2023-01-19T16:20:02;3.60;99.90
3408;DHT22;1717;50.240;8.406;2023-01-19T16:22:29;3.60;99.90
3408;DHT22;1717;50.240;8.406;2023-01-19T16:24:56;3.60;99.90
3408;DHT22;1717;50.240;8.406;2023-01-19T16:27:24;3.60;99.90
3408;DHT22;1717;50.240;8.406;2023-01-19T16:29:51;3.60;99.90
3408;DHT22;1717;50.240;8.406;2023-01-19T16:32:19;3.70;99.90
3408;DHT22;1717;50.240;8.406;2023-01-19T16:34:45;3.40;99.90
3408;DHT22;1717;50.240;8.406;2023-01-19T16:37:14;3.50;99.90
3408;DHT22;1717;50.240;8.406;2023-01-19T16:39:41;3.50;99.90
3408;DHT22;1717;50.240;8.406;2023-01-19T16:42:09;3.60;99.90
3408;DHT22;1717;50.240;8.406;2023-01-19T16:44:36;3.60;99.90
3408;DHT22;1717;50.240;8.406;2023-01-19T16:47:03;3.60;99.90
3408;DHT22;1717;50.240;8.406;2023-01-19T16:49:30;3.60;99.90
3408;DHT22;1717;50.240;8.406;2023-01-19T16:51:57;3.70;99.90
3408;DHT22;1717;50.240;8.406;2023-01-19T16:54:26;3.60;99.90
3408;DHT22;1717;50.240;8.406;2023-01-19T16:56:55;3.60;99.90
3408;DHT22;1717;50.240;8.406;2023-01-19T16:59:23;3.60;99.90
3408;DHT22;1717;50.240;8.406;2023-01-19T17:01:51;3.60;99.90
3408;DHT22;1717;50.240;8.406;2023-01-19T17:04:20;3.60;99.90
3408;DHT22;1717;50.240;8.406;2023-01-19T17:06:47;3.60;99.90
3408;DHT22;1717;50.240;8.406;2023-01-19T17:09:15;3.60;99.90
3408;DHT22;1717;50.240;8.406;2023-01-19T17:11:43;3.60;99.90